Time;durP1;ratioP1;P1;durP2;ratioP2;P2;SDS_P1;SDS_P2;PMS_P1;PMS_P2;Temp;Humidity;BMP_temperature;BMP_pressure;BME280_temperature;BME280_humidity;BME280_pressure;Samples;Min_cycle;Max_cycle;Signal;HPM_P1;HPM_P2
2024/02/04 06:02:08;;;;;;;0.90;0.80;;;;;;;;;;5602270;23;20563;-75
2024/02/04 06:04:36;;;;;;;0.70;0.60;;;;;;;;;;4954886;29;20459;-75
2024/02/04 06:07:02;;;;;;;0.80;0.70;;;;;;;;;;4955164;29;20922;-75
2024/02/04 06:09:28;;;;;;;0.80;0.70;;;;;;;;;;4954821;29;20429;-75
2024/02/04 06:11:54;;;;;;;0.70;0.63;;;;;;;;;;4955137;28;20484;-75
2024/02/04 06:14:20;;;;;;;0.83;0.73;;;;;;;;;;4954672;29;20533;-75
2024/02/04 06:16:46;;;;;;;0.73;0.70;;;;;;;;;;4955120;29;20417;-75
2024/02/04 06:19:12;;;;;;;0.70;0.60;;;;;;;;;;4954637;29;20480;-75
2024/02/04 06:21:39;;;;;;;0.70;0.60;;;;;;;;;;4954859;28;20528;-75
2024/02/04 06:24:05;;;;;;;0.80;0.70;;;;;;;;;;4954818;28;20496;-77
2024/02/04 06:26:31;;;;;;;1.07;0.80;;;;;;;;;;4954743;29;20416;-75
2024/02/04 06:28:57;;;;;;;1.23;0.80;;;;;;;;;;4954848;29;20409;-75
2024/02/04 06:31:23;;;;;;;0.90;0.80;;;;;;;;;;4954728;28;20568;-75
2024/02/04 06:33:49;;;;;;;0.97;0.77;;;;;;;;;;4953255;29;20473;-75
2024/02/04 06:36:15;;;;;;;0.80;0.80;;;;;;;;;;4954600;28;20947;-75
2024/02/04 06:38:41;;;;;;;1.27;1.03;;;;;;;;;;4954276;29;20551;-75
2024/02/04 06:41:07;;;;;;;0.90;0.80;;;;;;;;;;4954592;28;20706;-75
2024/02/04 06:43:33;;;;;;;0.93;0.87;;;;;;;;;;4954624;29;20445;-75
2024/02/04 06:45:59;;;;;;;0.83;0.73;;;;;;;;;;4954521;29;20409;-75
2024/02/04 06:48:25;;;;;;;0.77;0.73;;;;;;;;;;4954179;29;20485;-76
2024/02/04 06:50:51;;;;;;;2.10;0.93;;;;;;;;;;4955449;28;20795;-74
2024/02/04 06:53:17;;;;;;;0.80;0.70;;;;;;;;;;4954342;29;20425;-75
2024/02/04 06:55:42;;;;;;;0.73;0.70;;;;;;;;;;4953106;29;20433;-75
2024/02/04 06:58:08;;;;;;;0.93;0.77;;;;;;;;;;4954325;29;20456;-75
2024/02/04 07:00:34;;;;;;;1.37;0.93;;;;;;;;;;4953876;28;20443;-74
2024/02/04 07:03:00;;;;;;;0.90;0.80;;;;;;;;;;4953833;29;20559;-74
2024/02/04 07:05:26;;;;;;;0.90;0.80;;;;;;;;;;4954034;29;20421;-76
2024/02/04 07:07:52;;;;;;;0.83;0.73;;;;;;;;;;4954344;29;20931;-74
2024/02/04 07:10:18;;;;;;;1.00;0.90;;;;;;;;;;4954001;28;20420;-74
2024/02/04 07:12:45;;;;;;;1.00;0.77;;;;;;;;;;4953121;29;20436;-75
2024/02/04 07:15:11;;;;;;;1.13;0.90;;;;;;;;;;4959496;29;20459;-77
2024/02/04 07:17:37;;;;;;;1.17;1.10;;;;;;;;;;4961942;29;20920;-77
2024/02/04 07:20:03;;;;;;;1.67;1.03;;;;;;;;;;4960300;29;20420;-77
2024/02/04 07:22:29;;;;;;;0.80;0.70;;;;;;;;;;4955025;28;20443;-77
2024/02/04 07:24:55;;;;;;;1.77;1.00;;;;;;;;;;4954561;29;20495;-75
2024/02/04 07:27:21;;;;;;;1.10;1.00;;;;;;;;;;4954563;29;20919;-76
2024/02/04 07:29:47;;;;;;;1.03;0.90;;;;;;;;;;4952674;29;20987;-77
2024/02/04 07:32:13;;;;;;;0.90;0.80;;;;;;;;;;4953755;28;20976;-77
2024/02/04 07:34:39;;;;;;;1.20;0.90;;;;;;;;;;4953747;28;20543;-75
2024/02/04 07:37:05;;;;;;;1.07;1.03;;;;;;;;;;4952445;29;20452;-76
2024/02/04 07:39:31;;;;;;;6.17;2.90;;;;;;;;;;4953283;29;20471;-75
2024/02/04 07:42:00;;;;;;;9.13;2.00;;;;;;;;;;4953371;28;20429;-76
2024/02/04 07:44:29;;;;;;;1.30;1.20;;;;;;;;;;4953738;28;20412;-77
2024/02/04 07:46:55;;;;;;;0.90;0.80;;;;;;;;;;4952373;29;20431;-76
2024/02/04 07:49:22;;;;;;;1.03;0.93;;;;;;;;;;4952071;29;20787;-76
2024/02/04 07:51:48;;;;;;;1.07;0.70;;;;;;;;;;4953681;28;20428;-76
2024/02/04 07:54:14;;;;;;;1.20;1.10;;;;;;;;;;4952196;29;21009;-75
2024/02/04 07:56:40;;;;;;;1.97;1.30;;;;;;;;;;4953513;29;20751;-76
2024/02/04 07:59:06;;;;;;;2.20;1.10;;;;;;;;;;4953293;29;20504;-76
2024/02/04 08:01:32;;;;;;;1.23;1.13;;;;;;;;;;4953318;28;20448;-76
2024/02/04 08:03:58;;;;;;;0.93;0.80;;;;;;;;;;4955958;28;20413;-76
2024/02/04 08:06:24;;;;;;;2.93;1.10;;;;;;;;;;4957263;29;20404;-76
2024/02/04 08:08:49;;;;;;;1.37;1.03;;;;;;;;;;4957105;29;20416;-76
2024/02/04 08:11:19;;;;;;;0.97;0.90;;;;;;;;;;4956978;28;20432;-75
2024/02/04 08:13:45;;;;;;;0.80;0.70;;;;;;;;;;4955975;29;20808;-77
2024/02/04 08:16:11;;;;;;;1.13;1.10;;;;;;;;;;4956914;29;20412;-77
2024/02/04 08:18:37;;;;;;;0.93;0.83;;;;;;;;;;4956781;29;20468;-77
2024/02/04 08:21:03;;;;;;;1.70;0.97;;;;;;;;;;4957006;28;20508;-76
2024/02/04 08:23:29;;;;;;;0.93;0.83;;;;;;;;;;4955442;29;20457;-77
2024/02/04 08:25:56;;;;;;;1.97;0.83;;;;;;;;;;4956863;29;20412;-76
2024/02/04 08:28:23;;;;;;;1.60;1.00;;;;;;;;;;4956614;28;20412;-75
2024/02/04 08:30:49;;;;;;;1.30;0.90;;;;;;;;;;4955365;28;20540;-76
2024/02/04 08:33:15;;;;;;;1.00;0.90;;;;;;;;;;4956909;29;20503;-76
2024/02/04 08:35:41;;;;;;;1.90;1.00;;;;;;;;;;4955012;29;20428;-76
2024/02/04 08:38:07;;;;;;;1.43;0.80;;;;;;;;;;4956684;29;20484;-76
2024/02/04 08:40:33;;;;;;;1.00;0.90;;;;;;;;;;4955178;28;20479;-76
2024/02/04 08:42:59;;;;;;;3.70;0.90;;;;;;;;;;4955380;29;20459;-75
2024/02/04 08:45:25;;;;;;;2.53;1.00;;;;;;;;;;4956341;29;20472;-75
2024/02/04 08:47:51;;;;;;;1.07;0.93;;;;;;;;;;4956522;29;20415;-76
2024/02/04 08:50:17;;;;;;;1.00;0.90;;;;;;;;;;4956251;28;20754;-75
2024/02/04 08:52:43;;;;;;;1.03;1.00;;;;;;;;;;4956302;29;20409;-75
2024/02/04 08:55:09;;;;;;;1.20;0.80;;;;;;;;;;4954917;29;20958;-75
2024/02/04 08:57:35;;;;;;;3.67;1.87;;;;;;;;;;4956019;29;20775;-75
2024/02/04 09:00:01;;;;;;;4.63;2.10;;;;;;;;;;4956191;29;20433;-75
2024/02/04 09:02:27;;;;;;;4.53;0.97;;;;;;;;;;4956496;28;20486;-74
2024/02/04 09:04:53;;;;;;;1.40;1.07;;;;;;;;;;4956489;29;20424;-74
2024/02/04 09:07:20;;;;;;;1.57;0.90;;;;;;;;;;4956526;28;20901;-74
2024/02/04 09:09:46;;;;;;;1.00;1.00;;;;;;;;;;4956309;29;20437;-75
2024/02/04 09:12:12;;;;;;;0.93;0.83;;;;;;;;;;4955201;28;20448;-77
2024/02/04 09:14:38;;;;;;;1.00;0.90;;;;;;;;;;4954690;28;20913;-77
2024/02/04 09:17:04;;;;;;;1.60;1.10;;;;;;;;;;4955951;29;20895;-77
2024/02/04 09:19:33;;;;;;;1.50;1.23;;;;;;;;;;4955998;29;20876;-75
2024/02/04 09:22:01;;;;;;;1.20;1.10;;;;;;;;;;4954839;28;20441;-75
2024/02/04 09:24:27;;;;;;;0.90;0.80;;;;;;;;;;4956929;28;20519;-75
2024/02/04 09:26:53;;;;;;;1.17;1.07;;;;;;;;;;4956100;29;20417;-74
2024/02/04 09:29:19;;;;;;;1.20;1.10;;;;;;;;;;4955787;29;20855;-76
2024/02/04 09:31:45;;;;;;;1.73;1.20;;;;;;;;;;4955681;28;20447;-76
2024/02/04 09:34:11;;;;;;;4.20;1.50;;;;;;;;;;4955645;29;20420;-75
2024/02/04 09:36:37;;;;;;;36.23;11.43;;;;;;;;;;4955666;29;20421;-75
2024/02/04 09:39:03;;;;;;;42.60;19.00;;;;;;;;;;4955726;29;20500;-75
2024/02/04 09:41:29;;;;;;;15.87;6.17;;;;;;;;;;4954545;28;20482;-75
2024/02/04 09:43:56;;;;;;;7.63;3.30;;;;;;;;;;4955582;29;20757;-75
2024/02/04 09:46:22;;;;;;;4.30;2.63;;;;;;;;;;4955679;28;20523;-75
2024/02/04 09:48:49;;;;;;;9.43;2.20;;;;;;;;;;4955153;29;20421;-75
2024/02/04 09:51:15;;;;;;;2.07;1.33;;;;;;;;;;4955387;28;20440;-75
2024/02/04 09:53:44;;;;;;;3.93;2.07;;;;;;;;;;4954246;29;20516;-75
2024/02/04 09:56:11;;;;;;;1.43;1.10;;;;;;;;;;4955150;29;20417;-75
2024/02/04 09:58:37;;;;;;;9.00;4.23;;;;;;;;;;4954789;28;20515;-75
2024/02/04 10:01:04;;;;;;;1.43;1.00;;;;;;;;;;4955025;28;20464;-75
2024/02/04 10:03:30;;;;;;;1.83;0.97;;;;;;;;;;4955211;29;20417;-75
2024/02/04 10:05:57;;;;;;;0.87;0.70;;;;;;;;;;4957810;29;20487;-75
2024/02/04 10:08:23;;;;;;;4.50;1.40;;;;;;;;;;4959298;29;20445;-75
2024/02/04 10:10:49;;;;;;;3.00;1.83;;;;;;;;;;4956283;28;20467;-75
2024/02/04 10:13:15;;;;;;;1.63;0.93;;;;;;;;;;4955212;29;20772;-76
2024/02/04 10:15:41;;;;;;;1.63;1.53;;;;;;;;;;4954878;29;20408;-75
2024/02/04 10:18:08;;;;;;;2.93;1.23;;;;;;;;;;4954647;29;20496;-75
2024/02/04 10:20:34;;;;;;;1.20;0.90;;;;;;;;;;4953383;28;20456;-75
2024/02/04 10:23:00;;;;;;;3.03;1.20;;;;;;;;;;4954631;29;20421;-75
2024/02/04 10:25:26;;;;;;;0.97;0.70;;;;;;;;;;4953210;28;20927;-76
2024/02/04 10:27:53;;;;;;;0.80;0.70;;;;;;;;;;4954885;29;20409;-75
2024/02/04 10:30:20;;;;;;;1.93;1.20;;;;;;;;;;4954124;28;20421;-76
2024/02/04 10:32:47;;;;;;;0.80;0.70;;;;;;;;;;4954345;28;20431;-75
2024/02/04 10:35:13;;;;;;;2.70;1.73;;;;;;;;;;4954326;29;20425;-75
2024/02/04 10:37:38;;;;;;;1.57;0.80;;;;;;;;;;4954243;29;20409;-76
2024/02/04 10:40:05;;;;;;;0.90;0.80;;;;;;;;;;4952682;29;20492;-76
2024/02/04 10:42:31;;;;;;;0.80;0.70;;;;;;;;;;4954321;28;20428;-76
2024/02/04 10:45:01;;;;;;;2.47;1.63;;;;;;;;;;4954184;29;20888;-75
2024/02/04 10:47:32;;;;;;;1.03;0.93;;;;;;;;;;4954225;29;20413;-75
2024/02/04 10:49:59;;;;;;;2.27;1.10;;;;;;;;;;4954159;28;20897;-75
2024/02/04 10:52:28;;;;;;;0.90;0.80;;;;;;;;;;4954175;28;20437;-75
2024/02/04 10:54:54;;;;;;;1.20;0.90;;;;;;;;;;4954363;28;20924;-75
2024/02/04 10:57:23;;;;;;;0.77;0.70;;;;;;;;;;4954364;29;20408;-75
2024/02/04 10:59:49;;;;;;;0.83;0.73;;;;;;;;;;4952910;29;20468;-75
2024/02/04 11:02:17;;;;;;;2.00;0.70;;;;;;;;;;4952780;28;20453;-75
2024/02/04 11:04:43;;;;;;;0.80;0.70;;;;;;;;;;4953662;28;20868;-76
2024/02/04 11:07:10;;;;;;;0.80;0.77;;;;;;;;;;4953914;29;20464;-75
2024/02/04 11:09:37;;;;;;;0.93;0.70;;;;;;;;;;4952337;29;20421;-75
2024/02/04 11:12:04;;;;;;;0.67;0.60;;;;;;;;;;4952930;28;20925;-76
2024/02/04 11:14:32;;;;;;;0.63;0.60;;;;;;;;;;4953649;28;20421;-75
2024/02/04 11:17:16;;;;;;;2.00;0.70;;;;;;;;;;4953864;29;20412;-75
2024/02/04 11:19:42;;;;;;;1.20;1.00;;;;;;;;;;4953441;29;20567;-75
2024/02/04 11:22:27;;;;;;;1.10;0.90;;;;;;;;;;4952308;28;20472;-76
2024/02/04 11:25:18;;;;;;;1.83;0.90;;;;;;;;;;4953458;29;20416;-75
2024/02/04 11:27:44;;;;;;;0.73;0.70;;;;;;;;;;4953373;28;20423;-75
2024/02/04 11:30:11;;;;;;;2.73;0.80;;;;;;;;;;4953305;28;20408;-76
2024/02/04 11:32:36;;;;;;;1.90;1.00;;;;;;;;;;4953721;28;20905;-75
2024/02/04 11:35:07;;;;;;;1.17;1.00;;;;;;;;;;4953802;29;20404;-75
2024/02/04 11:37:33;;;;;;;1.90;0.60;;;;;;;;;;4953620;28;20412;-75
2024/02/04 11:39:59;;;;;;;0.80;0.70;;;;;;;;;;4953893;29;20527;-75
2024/02/04 11:42:26;;;;;;;0.90;0.70;;;;;;;;;;4953434;28;20492;-75
2024/02/04 11:45:07;;;;;;;0.63;0.57;;;;;;;;;;4953714;29;20405;-75
2024/02/04 11:47:35;;;;;;;0.73;0.63;;;;;;;;;;4952216;29;20507;-76
2024/02/04 11:50:01;;;;;;;0.70;0.60;;;;;;;;;;4953282;28;20417;-75
2024/02/04 11:52:27;;;;;;;2.20;0.83;;;;;;;;;;4952281;28;20503;-76
2024/02/04 11:54:54;;;;;;;0.70;0.60;;;;;;;;;;4953293;28;20499;-75
2024/02/04 11:57:20;;;;;;;1.00;0.90;;;;;;;;;;4953401;29;20413;-76
2024/02/04 11:59:47;;;;;;;1.07;0.70;;;;;;;;;;4953069;29;20524;-75
2024/02/04 12:02:14;;;;;;;0.93;0.77;;;;;;;;;;4951590;28;20480;-75
2024/02/04 12:04:40;;;;;;;0.80;0.60;;;;;;;;;;4953481;28;20768;-76
2024/02/04 12:07:06;;;;;;;0.73;0.67;;;;;;;;;;4951768;29;20452;-75
2024/02/04 12:09:32;;;;;;;0.93;0.80;;;;;;;;;;4952948;29;20424;-75
2024/02/04 12:11:58;;;;;;;0.90;0.80;;;;;;;;;;4952912;28;20761;-75
2024/02/04 12:14:24;;;;;;;1.90;0.87;;;;;;;;;;4976313;23;21029;-71
2024/02/04 12:16:50;;;;;;;0.77;0.67;;;;;;;;;;4953504;29;20420;-71
2024/02/04 12:19:16;;;;;;;0.83;0.73;;;;;;;;;;4953027;29;20464;-71
2024/02/04 12:21:43;;;;;;;0.70;0.60;;;;;;;;;;4953252;28;20492;-71
2024/02/04 12:24:09;;;;;;;0.73;0.67;;;;;;;;;;4953145;28;20512;-72
2024/02/04 12:26:36;;;;;;;0.77;0.70;;;;;;;;;;4953063;29;20409;-72
2024/02/04 12:29:02;;;;;;;0.93;0.77;;;;;;;;;;4952890;29;20500;-72
2024/02/04 12:31:29;;;;;;;0.67;0.57;;;;;;;;;;4953158;28;20471;-71
2024/02/04 12:33:59;;;;;;;1.17;0.63;;;;;;;;;;4953300;28;20468;-72
2024/02/04 12:36:26;;;;;;;1.43;0.60;;;;;;;;;;4951720;29;20447;-71
2024/02/04 12:38:55;;;;;;;2.57;0.93;;;;;;;;;;4952860;29;20468;-72
2024/02/04 12:41:25;;;;;;;0.90;0.80;;;;;;;;;;4952830;29;20947;-72
2024/02/04 12:43:54;;;;;;;3.33;1.03;;;;;;;;;;4952813;28;20425;-71
2024/02/04 12:46:21;;;;;;;2.40;0.80;;;;;;;;;;4951532;29;20431;-72
2024/02/04 12:48:54;;;;;;;0.83;0.73;;;;;;;;;;4951788;28;20940;-72
2024/02/04 12:51:29;;;;;;;0.67;0.50;;;;;;;;;;4956190;29;20848;-72
2024/02/04 12:54:06;;;;;;;0.73;0.67;;;;;;;;;;4954857;28;20527;-73
2024/02/04 12:56:41;;;;;;;0.90;0.80;;;;;;;;;;4956325;29;20444;-71
2024/02/04 12:59:08;;;;;;;2.57;0.70;;;;;;;;;;4955928;29;20549;-72
2024/02/04 13:01:35;;;;;;;1.17;1.00;;;;;;;;;;4956023;29;20420;-72
2024/02/04 13:04:01;;;;;;;2.10;0.80;;;;;;;;;;4955791;28;20804;-72
2024/02/04 13:06:27;;;;;;;0.80;0.70;;;;;;;;;;4956363;29;20413;-72
2024/02/04 13:08:59;;;;;;;0.87;0.80;;;;;;;;;;4957398;29;20420;-72
2024/02/04 13:11:25;;;;;;;0.90;0.80;;;;;;;;;;4956126;28;20413;-72
2024/02/04 13:13:51;;;;;;;1.90;0.90;;;;;;;;;;4955803;28;20464;-72
2024/02/04 13:16:19;;;;;;;0.87;0.83;;;;;;;;;;4955809;29;20449;-71
2024/02/04 13:18:45;;;;;;;0.80;0.70;;;;;;;;;;4955416;28;20531;-72
2024/02/04 13:21:11;;;;;;;0.87;0.77;;;;;;;;;;4955547;29;20872;-72
2024/02/04 13:23:37;;;;;;;0.80;0.80;;;;;;;;;;4955499;28;20437;-71
2024/02/04 13:26:03;;;;;;;0.70;0.70;;;;;;;;;;4955577;29;20425;-71
2024/02/04 13:28:29;;;;;;;0.60;0.60;;;;;;;;;;4955720;29;20429;-71
2024/02/04 13:30:54;;;;;;;0.97;0.70;;;;;;;;;;4955497;29;20425;-70
2024/02/04 13:33:20;;;;;;;2.10;1.30;;;;;;;;;;4955244;28;20425;-72
2024/02/04 13:35:48;;;;;;;2.63;1.37;;;;;;;;;;4955517;29;20431;-71
2024/02/04 13:38:14;;;;;;;0.73;0.63;;;;;;;;;;4955453;28;20975;-71
2024/02/04 13:40:40;;;;;;;1.27;0.60;;;;;;;;;;4954977;29;20413;-71
2024/02/04 13:43:06;;;;;;;3.07;0.70;;;;;;;;;;4954911;28;20408;-72
2024/02/04 13:45:32;;;;;;;1.03;0.80;;;;;;;;;;4954795;28;20440;-71
2024/02/04 13:47:58;;;;;;;0.80;0.70;;;;;;;;;;4955005;29;20416;-71
2024/02/04 13:50:24;;;;;;;2.83;0.60;;;;;;;;;;4954967;29;20423;-72
2024/02/04 13:52:50;;;;;;;0.90;0.80;;;;;;;;;;4954860;29;20453;-74
2024/02/04 13:55:16;;;;;;;3.37;1.00;;;;;;;;;;4955167;28;20807;-72
2024/02/04 13:57:42;;;;;;;1.50;0.77;;;;;;;;;;4955163;29;20495;-71
2024/02/04 14:00:09;;;;;;;1.10;0.80;;;;;;;;;;4954279;28;20492;-70
2024/02/04 14:02:35;;;;;;;3.63;1.10;;;;;;;;;;4956328;29;20409;-70
2024/02/04 14:05:01;;;;;;;0.83;0.80;;;;;;;;;;4954303;28;20425;-71
2024/02/04 14:07:27;;;;;;;1.77;1.10;;;;;;;;;;4954695;29;20424;-71
2024/02/04 14:09:53;;;;;;;1.03;0.90;;;;;;;;;;4954445;29;20425;-70
2024/02/04 14:12:19;;;;;;;1.83;0.90;;;;;;;;;;4954734;29;20421;-71
2024/02/04 14:14:45;;;;;;;1.00;0.90;;;;;;;;;;4954458;28;20542;-72
2024/02/04 14:17:11;;;;;;;1.20;1.00;;;;;;;;;;4954150;29;20425;-71
2024/02/04 14:19:37;;;;;;;1.13;1.10;;;;;;;;;;4953832;29;20495;-72
2024/02/04 14:22:03;;;;;;;2.40;0.90;;;;;;;;;;4954600;29;20413;-72
2024/02/04 14:24:29;;;;;;;3.77;1.10;;;;;;;;;;4955255;28;20450;-72
2024/02/04 14:26:58;;;;;;;1.90;1.13;;;;;;;;;;4953169;29;20505;-71
2024/02/04 14:29:25;;;;;;;1.97;1.70;;;;;;;;;;4954397;29;20413;-71
2024/02/04 14:31:51;;;;;;;3.00;1.90;;;;;;;;;;4954581;28;20503;-72
2024/02/04 14:34:17;;;;;;;1.10;1.00;;;;;;;;;;4954326;28;20448;-72
2024/02/04 14:36:43;;;;;;;3.83;0.90;;;;;;;;;;4954267;29;20417;-72
2024/02/04 14:39:10;;;;;;;1.03;0.97;;;;;;;;;;4954218;29;20539;-72
2024/02/04 14:41:36;;;;;;;1.40;1.10;;;;;;;;;;4954364;28;20440;-71
2024/02/04 14:44:02;;;;;;;2.30;1.27;;;;;;;;;;4954436;28;20441;-71
2024/02/04 14:46:28;;;;;;;1.37;1.30;;;;;;;;;;4954231;29;20408;-72
2024/02/04 14:48:54;;;;;;;5.37;1.40;;;;;;;;;;4953757;29;20452;-71
2024/02/04 14:51:20;;;;;;;3.13;1.40;;;;;;;;;;4954067;29;20741;-72
2024/02/04 14:53:46;;;;;;;1.47;1.27;;;;;;;;;;4953355;28;20440;-70
2024/02/04 14:56:12;;;;;;;4.30;1.10;;;;;;;;;;4953768;29;20428;-72
2024/02/04 14:58:38;;;;;;;1.60;1.30;;;;;;;;;;4954003;29;20471;-71
2024/02/04 15:01:04;;;;;;;1.27;1.20;;;;;;;;;;4953924;29;20409;-71
2024/02/04 15:03:30;;;;;;;2.23;1.93;;;;;;;;;;4953830;28;20822;-70
2024/02/04 15:05:56;;;;;;;1.00;1.00;;;;;;;;;;4953626;29;20857;-72
2024/02/04 15:08:23;;;;;;;2.07;1.10;;;;;;;;;;4953524;29;20413;-73
2024/02/04 15:10:49;;;;;;;1.03;1.03;;;;;;;;;;4954300;28;20781;-72
2024/02/04 15:13:15;;;;;;;1.17;1.10;;;;;;;;;;4952768;28;20431;-72
2024/02/04 15:15:41;;;;;;;1.77;1.20;;;;;;;;;;4953732;29;20417;-72
2024/02/04 15:18:07;;;;;;;0.90;0.80;;;;;;;;;;4953702;29;20504;-72
2024/02/04 15:20:33;;;;;;;0.90;0.87;;;;;;;;;;4953543;29;20923;-72
2024/02/04 15:23:00;;;;;;;1.70;1.33;;;;;;;;;;4953731;29;20405;-72
2024/02/04 15:25:26;;;;;;;2.37;1.03;;;;;;;;;;4953623;28;20471;-72
2024/02/04 15:27:53;;;;;;;1.03;1.00;;;;;;;;;;4953907;29;20417;-71
2024/02/04 15:30:19;;;;;;;1.83;1.37;;;;;;;;;;4953685;29;20811;-71
2024/02/04 15:32:45;;;;;;;2.23;1.40;;;;;;;;;;4953541;29;20441;-71
2024/02/04 15:35:12;;;;;;;2.87;1.17;;;;;;;;;;4953128;28;20463;-71
2024/02/04 15:37:38;;;;;;;0.80;0.77;;;;;;;;;;4953342;28;20929;-70
2024/02/04 15:40:05;;;;;;;1.80;1.37;;;;;;;;;;4953221;29;20550;-71
2024/02/04 15:42:30;;;;;;;3.00;1.10;;;;;;;;;;4953608;28;20420;-71
2024/02/04 15:44:56;;;;;;;1.53;1.23;;;;;;;;;;4953230;28;20428;-71
2024/02/04 15:47:23;;;;;;;1.00;0.90;;;;;;;;;;4953362;29;20819;-73
2024/02/04 15:49:49;;;;;;;1.13;0.90;;;;;;;;;;4953341;29;20511;-72
2024/02/04 15:52:16;;;;;;;1.67;0.90;;;;;;;;;;4953108;29;20761;-73
2024/02/04 15:54:42;;;;;;;2.70;1.07;;;;;;;;;;4953245;28;20436;-72
2024/02/04 15:57:09;;;;;;;2.70;1.30;;;;;;;;;;4953361;28;20475;-71
2024/02/04 15:59:41;;;;;;;1.20;1.00;;;;;;;;;;4953332;29;20519;-71
2024/02/04 16:02:08;;;;;;;1.60;1.10;;;;;;;;;;4953323;29;20408;-72
2024/02/04 16:04:34;;;;;;;1.20;0.93;;;;;;;;;;4953379;28;20869;-70
2024/02/04 16:07:00;;;;;;;1.00;0.90;;;;;;;;;;4953360;29;20699;-70
2024/02/04 16:09:29;;;;;;;3.30;1.23;;;;;;;;;;4953109;29;20467;-70
2024/02/04 16:12:08;;;;;;;3.30;1.47;;;;;;;;;;4952149;29;20424;-70
2024/02/04 16:14:46;;;;;;;1.30;1.10;;;;;;;;;;4953120;28;20452;-71
2024/02/04 16:17:13;;;;;;;1.40;1.40;;;;;;;;;;4953104;28;20408;-69
2024/02/04 16:19:39;;;;;;;1.43;1.03;;;;;;;;;;4951485;29;20560;-70
2024/02/04 16:22:05;;;;;;;2.20;1.30;;;;;;;;;;4953178;29;20409;-71
2024/02/04 16:24:31;;;;;;;2.23;1.77;;;;;;;;;;4955406;28;20440;-69
2024/02/04 16:26:58;;;;;;;1.53;1.50;;;;;;;;;;4957817;29;20495;-70
2024/02/04 16:29:29;;;;;;;1.90;1.63;;;;;;;;;;4956810;29;20417;-72
2024/02/04 16:31:55;;;;;;;1.63;1.47;;;;;;;;;;4956763;29;20499;-71
2024/02/04 16:34:21;;;;;;;1.43;1.27;;;;;;;;;;4953432;28;20989;-70
2024/02/04 16:36:48;;;;;;;1.50;1.10;;;;;;;;;;4956118;29;20432;-71
2024/02/04 16:39:14;;;;;;;2.40;1.70;;;;;;;;;;4956456;28;20478;-70
2024/02/04 16:41:41;;;;;;;4.10;2.17;;;;;;;;;;4956201;29;20433;-72
2024/02/04 16:44:07;;;;;;;20.90;6.13;;;;;;;;;;4956315;28;20467;-72
2024/02/04 16:46:33;;;;;;;6.10;2.70;;;;;;;;;;4956226;29;21370;-73
2024/02/04 16:48:59;;;;;;;1.97;1.50;;;;;;;;;;4955996;29;20511;-74
2024/02/04 16:51:26;;;;;;;4.63;1.43;;;;;;;;;;4956218;28;20417;-72
2024/02/04 16:53:52;;;;;;;2.17;1.50;;;;;;;;;;4956205;29;20979;-72
2024/02/04 16:56:19;;;;;;;4.60;2.07;;;;;;;;;;4947279;29;20422;-71
2024/02/04 16:58:45;;;;;;;4.20;1.77;;;;;;;;;;4936931;29;20461;-70
2024/02/04 17:01:11;;;;;;;1.87;1.30;;;;;;;;;;4940330;29;20421;-73
2024/02/04 17:03:37;;;;;;;1.97;1.27;;;;;;;;;;4937087;29;20465;-73
2024/02/04 17:06:03;;;;;;;4.00;2.37;;;;;;;;;;4940395;29;20512;-71
2024/02/04 17:08:29;;;;;;;3.90;2.73;;;;;;;;;;4936696;29;20427;-71
2024/02/04 17:10:55;;;;;;;4.00;2.47;;;;;;;;;;4940270;29;20472;-70
2024/02/04 17:13:21;;;;;;;3.87;2.17;;;;;;;;;;4936845;29;20490;-71
2024/02/04 17:15:48;;;;;;;3.23;2.07;;;;;;;;;;4940322;29;20433;-72
2024/02/04 17:18:18;;;;;;;2.00;1.30;;;;;;;;;;4937392;29;20564;-72
2024/02/04 17:20:50;;;;;;;4.20;2.40;;;;;;;;;;4940099;29;20494;-71
2024/02/04 17:23:17;;;;;;;1.60;1.30;;;;;;;;;;4939979;28;20418;-71
2024/02/04 17:25:43;;;;;;;3.97;2.20;;;;;;;;;;4953975;29;20516;-71
2024/02/04 17:28:10;;;;;;;3.37;2.37;;;;;;;;;;4946750;29;20756;-69
2024/02/04 17:30:36;;;;;;;3.13;2.07;;;;;;;;;;4956089;28;20423;-74
2024/02/04 17:33:02;;;;;;;9.23;2.63;;;;;;;;;;4955987;29;20409;-74
2024/02/04 17:35:30;;;;;;;5.67;2.60;;;;;;;;;;4954757;28;20441;-74
2024/02/04 17:37:56;;;;;;;3.27;2.10;;;;;;;;;;4954591;29;20428;-72
2024/02/04 17:40:23;;;;;;;9.87;4.27;;;;;;;;;;4955811;29;20424;-74
2024/02/04 17:42:49;;;;;;;3.67;2.20;;;;;;;;;;4955724;29;20909;-74
2024/02/04 17:45:15;;;;;;;10.90;5.40;;;;;;;;;;4955401;29;20472;-74
2024/02/04 17:47:41;;;;;;;8.77;4.30;;;;;;;;;;4955616;29;20458;-73
2024/02/04 17:50:07;;;;;;;8.63;4.17;;;;;;;;;;4955560;28;20420;-73
2024/02/04 17:52:34;;;;;;;6.10;2.90;;;;;;;;;;4955848;29;20421;-73
2024/02/04 17:55:00;;;;;;;9.73;5.00;;;;;;;;;;4955704;28;20535;-73
2024/02/04 17:57:26;;;;;;;16.30;6.67;;;;;;;;;;4955247;29;20923;-73
2024/02/04 17:59:52;;;;;;;9.83;5.07;;;;;;;;;;4955071;29;20580;-72
2024/02/04 18:02:19;;;;;;;12.10;6.00;;;;;;;;;;4955243;29;20417;-75
2024/02/04 18:04:46;;;;;;;15.47;7.30;;;;;;;;;;4954507;29;20444;-74
2024/02/04 18:07:12;;;;;;;5.93;3.20;;;;;;;;;;4955362;28;20413;-73
2024/02/04 18:09:41;;;;;;;4.47;2.20;;;;;;;;;;4955174;29;20500;-72
2024/02/04 18:12:07;;;;;;;6.47;3.37;;;;;;;;;;4955337;28;20413;-72
2024/02/04 18:14:33;;;;;;;7.30;4.00;;;;;;;;;;4969782;23;20492;-75
2024/02/04 18:17:05;;;;;;;7.43;4.10;;;;;;;;;;4958160;28;20405;-73
2024/02/04 18:19:32;;;;;;;10.70;5.93;;;;;;;;;;4957600;28;20467;-73
2024/02/04 18:21:58;;;;;;;11.40;5.27;;;;;;;;;;4956295;28;20532;-73
2024/02/04 18:24:24;;;;;;;9.50;4.70;;;;;;;;;;4957100;28;20464;-73
2024/02/04 18:26:50;;;;;;;5.37;3.00;;;;;;;;;;4956913;28;20428;-73
2024/02/04 18:29:17;;;;;;;6.27;4.10;;;;;;;;;;4956791;28;20468;-73
2024/02/04 18:31:45;;;;;;;5.33;3.17;;;;;;;;;;4964460;28;20404;-72
2024/02/04 18:34:15;;;;;;;7.13;4.10;;;;;;;;;;4974253;28;20436;-73
2024/02/04 18:36:41;;;;;;;18.83;5.13;;;;;;;;;;4962945;28;20825;-73
2024/02/04 18:39:07;;;;;;;6.10;4.50;;;;;;;;;;4956281;28;20937;-73
2024/02/04 18:41:39;;;;;;;4.40;2.40;;;;;;;;;;4956043;28;20892;-73
2024/02/04 18:44:05;;;;;;;3.20;2.00;;;;;;;;;;4953293;29;20468;-73
2024/02/04 18:46:31;;;;;;;2.53;2.33;;;;;;;;;;4954245;28;20413;-73
2024/02/04 18:48:58;;;;;;;2.50;2.10;;;;;;;;;;4954469;28;20511;-73
2024/02/04 18:51:25;;;;;;;1.93;1.83;;;;;;;;;;4954319;28;20425;-73
2024/02/04 18:53:51;;;;;;;6.17;2.43;;;;;;;;;;4954264;28;20444;-73
2024/02/04 18:56:17;;;;;;;1.53;1.40;;;;;;;;;;4954425;28;20427;-75
2024/02/04 18:58:46;;;;;;;2.37;1.67;;;;;;;;;;4954239;28;20460;-73
2024/02/04 19:01:13;;;;;;;1.93;1.80;;;;;;;;;;4954570;28;20916;-73
2024/02/04 19:03:39;;;;;;;1.87;1.80;;;;;;;;;;4954019;28;20896;-73
2024/02/04 19:06:08;;;;;;;2.83;1.80;;;;;;;;;;4953998;28;20420;-73
2024/02/04 19:08:36;;;;;;;2.77;1.63;;;;;;;;;;4954330;28;20417;-73
2024/02/04 19:11:01;;;;;;;1.70;1.63;;;;;;;;;;4954233;28;20423;-73
2024/02/04 19:13:27;;;;;;;1.90;1.83;;;;;;;;;;4955172;29;20515;-73
2024/02/04 19:15:53;;;;;;;1.83;1.63;;;;;;;;;;4954273;28;20460;-73
2024/02/04 19:18:19;;;;;;;3.70;2.20;;;;;;;;;;4953927;28;20468;-73
2024/02/04 19:20:45;;;;;;;1.57;1.50;;;;;;;;;;4954156;28;20735;-73
2024/02/04 19:23:11;;;;;;;2.83;2.10;;;;;;;;;;4952692;29;20843;-75
2024/02/04 19:25:37;;;;;;;2.30;1.87;;;;;;;;;;4953935;28;21074;-74
2024/02/04 19:28:04;;;;;;;4.33;2.03;;;;;;;;;;4953451;28;20459;-74
2024/02/04 19:30:30;;;;;;;3.30;2.20;;;;;;;;;;4952876;28;20413;-74
2024/02/04 19:32:56;;;;;;;2.37;1.90;;;;;;;;;;4952647;28;20420;-73
2024/02/04 19:35:26;;;;;;;3.30;2.30;;;;;;;;;;4953557;28;20792;-73
2024/02/04 19:37:53;;;;;;;2.40;2.20;;;;;;;;;;4953347;28;20457;-73
2024/02/04 19:40:20;;;;;;;4.00;2.03;;;;;;;;;;4953034;28;20491;-73
2024/02/04 19:42:46;;;;;;;1.80;1.77;;;;;;;;;;4952936;28;20413;-73
2024/02/04 19:45:12;;;;;;;3.10;2.13;;;;;;;;;;4952918;28;20444;-73
2024/02/04 19:47:38;;;;;;;2.40;1.83;;;;;;;;;;4952861;28;20484;-74
2024/02/04 19:50:05;;;;;;;2.97;1.80;;;;;;;;;;4952778;28;20505;-73
2024/02/04 19:52:31;;;;;;;1.97;1.87;;;;;;;;;;4951705;29;20429;-73
2024/02/04 19:54:57;;;;;;;3.53;2.37;;;;;;;;;;4952730;28;20444;-74
2024/02/04 19:57:23;;;;;;;2.80;2.30;;;;;;;;;;4952841;28;20416;-73
2024/02/04 19:59:49;;;;;;;1.93;1.57;;;;;;;;;;4953443;28;20923;-73
2024/02/04 20:02:15;;;;;;;3.13;1.97;;;;;;;;;;4955387;29;20818;-74
2024/02/04 20:04:41;;;;;;;1.43;1.33;;;;;;;;;;4956710;28;20448;-73
2024/02/04 20:07:07;;;;;;;3.43;2.10;;;;;;;;;;4957047;28;20408;-74
2024/02/04 20:09:34;;;;;;;2.63;1.83;;;;;;;;;;4956211;28;20515;-75
2024/02/04 20:12:00;;;;;;;3.40;1.80;;;;;;;;;;4956544;28;20780;-74
2024/02/04 20:14:26;;;;;;;1.77;1.50;;;;;;;;;;4956297;28;20927;-74
2024/02/04 20:16:52;;;;;;;3.00;1.67;;;;;;;;;;4956294;28;20774;-74
2024/02/04 20:19:18;;;;;;;1.80;1.70;;;;;;;;;;4956170;28;20456;-74
2024/02/04 20:21:44;;;;;;;2.77;2.00;;;;;;;;;;4956364;28;20483;-74
2024/02/04 20:24:10;;;;;;;2.50;1.60;;;;;;;;;;4956217;28;20749;-74
2024/02/04 20:26:37;;;;;;;2.33;1.80;;;;;;;;;;4956585;28;20472;-74
2024/02/04 20:29:03;;;;;;;3.07;2.10;;;;;;;;;;4956069;28;20417;-74
2024/02/04 20:31:29;;;;;;;1.50;1.40;;;;;;;;;;4954731;29;20983;-74
2024/02/04 20:33:55;;;;;;;1.60;1.50;;;;;;;;;;4955940;28;20477;-74
2024/02/04 20:36:21;;;;;;;4.30;1.80;;;;;;;;;;4956031;28;20408;-74
2024/02/04 20:38:48;;;;;;;3.60;2.10;;;;;;;;;;4955790;28;20460;-74
2024/02/04 20:41:14;;;;;;;1.77;1.67;;;;;;;;;;4954555;29;20432;-74